Terminal Aerodrome Forecast
Issued by NWS

Home | Current Version | Previous Version | Text Only | Print | Product List | Glossary Off
Versions: 1 2 3 4 5 6 7 8 9 10 11 12 13 14 15 16 17 18

528
FTUS43 KGRB 282321
TAFATW
TAF
KATW 282321Z 2900/2924 05012G16KT P6SM VCSH BKN015 OVC050
      TEMPO 2900/2903 SCT015 BKN050
     FM290300 03008KT P6SM BKN050
     FM290900 01008KT P6SM VCSH SCT025 OVC050
     FM291500 05007KT P6SM BKN050
     FM291900 05010KT P6SM SCT050 BKN100=

USA.gov is the U.S. government's official web portal to all federal, state and local government web resources and services.